Strona główna
METAR-TAF:

METAR-TAF

Lotnisko :

Port lotniczy Nakhon Phanom

Nakhon Phanom, Tajlandia

Szerokość geograficzna: 17-23-02N, Długość geograficzna: 104-38-35E, wysokość: 179 m

Aktualna obserwacja pogody

Raport powstał 18 minut temu, godzina 12:00 UTC
Wiatr 3 kt od północ
Temperatura 30°C
Wilgotność 46%
Ciśnienie 1003 hPa
Widzialność: 7000 m
Mało chmury na wysokości 3000 ft

METAR: VTUW 261200Z 35003KT 7000 FEW030 30/17 Q1003 NOSIG

czas: 19:18 (12:18 UTC)

Prognoza

Raport powstał 1 godzina i 18 minut temu, godzina 11:00 UTC
Prognoza ważna od 26 godzina 12 UTC do 27 godzina 12 UTC
Wiatr 5 kt od wschodnio-południowy wschód
Widzialność: 7000 m
Mało chmury na wysokości 3000 ft
Stopniowe zmiany
od 26 godzina 21 UTC do 26 godzina 23 UTC
Widzialność: 4000 m
zamglenie
Stopniowe zmiany
od 27 godzina 04 UTC do 27 godzina 06 UTC
Widzialność: 7000 m

TAF: VTUW 261100Z 2612/2712 12005KT 7000 FEW030 BECMG 2621/2623 4000 BR BECMG 2704/2706 7000 NSW

Obserwacja i prognoza pogody dla ponad 4000 lotnisk (raport METAR i TAF).

Dostępne stacje oznaczono żółtymi i czerwonymi punktami na mapie.

Najedź kursorem aby zobaczyć nazwę stacji.

Kliknij aby zobaczyć obserwacje i prognozy pogody.

Aby zmienić mapę: kliknij na zielony przycisk z czarnym krzyżykiem, aby powiększyć; na zielony przycisk z myślnikiem, aby pomniejszyć; na zielone strzałki, aby przejść do map sąsiednich.


METAR-TAF: